createdAt,value
2023-12-10T00:01:55.381Z,99016.53
2023-12-10T00:04:24.008Z,99040.81
2023-12-10T00:06:52.106Z,99039.03
2023-12-10T00:09:18.990Z,99038.16
2023-12-10T00:11:45.637Z,99046.81
2023-12-10T00:14:12.314Z,99050.28
2023-12-10T00:16:38.968Z,99056.28
2023-12-10T00:19:05.969Z,99048.53
2023-12-10T00:21:32.763Z,99058.00
2023-12-10T00:23:59.498Z,99068.38
2023-12-10T00:26:26.173Z,99068.44
2023-12-10T00:28:52.839Z,99067.56
2023-12-10T00:31:19.520Z,99074.50
2023-12-10T00:33:46.275Z,99068.38
2023-12-10T00:36:13.291Z,99086.56
2023-12-10T00:38:40.080Z,99082.22
2023-12-10T00:41:06.973Z,99080.56
2023-12-10T00:43:33.666Z,99092.66
2023-12-10T00:46:00.364Z,99105.59
2023-12-10T00:48:27.200Z,99096.97
2023-12-10T00:50:53.924Z,99100.41
2023-12-10T00:53:20.580Z,99109.81
2023-12-10T00:55:48.071Z,99105.50
2023-12-10T00:58:15.386Z,99112.50
2023-12-10T01:00:42.792Z,99118.50
2023-12-10T01:03:09.675Z,99116.78
2023-12-10T01:05:36.609Z,99124.59
2023-12-10T01:08:04.448Z,99121.97
2023-12-10T01:10:31.468Z,99125.44
2023-12-10T01:12:58.619Z,99127.19
2023-12-10T01:15:32.908Z,99127.16
2023-12-10T01:18:03.690Z,99122.84
2023-12-10T01:20:32.200Z,99129.75
2023-12-10T01:22:59.525Z,99128.88
2023-12-10T01:25:26.932Z,99132.31
2023-12-10T01:27:54.734Z,99130.56
2023-12-10T01:30:24.789Z,99138.34
2023-12-10T01:32:58.769Z,99140.97
2023-12-10T01:35:26.973Z,99140.94
2023-12-10T01:37:54.160Z,99133.97
2023-12-10T01:40:20.878Z,99141.84
2023-12-10T01:42:50.407Z,99146.16
2023-12-10T01:45:19.720Z,99153.03
2023-12-10T01:47:49.045Z,99150.44
2023-12-10T01:50:19.591Z,99159.06
2023-12-10T01:52:50.452Z,99164.25
2023-12-10T01:55:17.830Z,99151.31
2023-12-10T01:57:44.791Z,99161.66
2023-12-10T02:00:12.370Z,99164.31
2023-12-10T02:02:40.717Z,99161.66
2023-12-10T02:05:10.680Z,99174.63
2023-12-10T02:07:38.393Z,99176.34
2023-12-10T02:10:07.301Z,99189.28
2023-12-10T02:12:37.857Z,99168.59
2023-12-10T02:15:21.124Z,99179.81
2023-12-10T02:17:49.450Z,99178.91
2023-12-10T02:20:17.822Z,99176.31
2023-12-10T02:22:52.574Z,99172.03
2023-12-10T02:25:31.742Z,99183.22
2023-12-10T02:27:59.041Z,99190.19
2023-12-10T02:30:26.818Z,99180.66
2023-12-10T02:32:53.661Z,99176.38
2023-12-10T02:35:20.388Z,99178.00
2023-12-10T02:37:47.246Z,99190.16
2023-12-10T02:40:14.530Z,99191.91
2023-12-10T02:42:41.541Z,99196.22
2023-12-10T02:45:08.436Z,99192.78
2023-12-10T02:47:36.664Z,99198.00
2023-12-10T02:50:03.768Z,99208.31
2023-12-10T02:52:30.808Z,99199.72
2023-12-10T02:54:57.580Z,99208.34
2023-12-10T02:57:24.295Z,99192.84
2023-12-10T02:59:50.964Z,99198.00
2023-12-10T03:02:17.705Z,99209.22
2023-12-10T03:04:44.416Z,99210.09
2023-12-10T03:07:11.130Z,99216.13
2023-12-10T03:09:37.930Z,99215.28
2023-12-10T03:12:05.336Z,99219.59
2023-12-10T03:14:32.069Z,99211.84
2023-12-10T03:16:58.806Z,99224.78
2023-12-10T03:19:25.496Z,99219.59
2023-12-10T03:21:52.285Z,99230.81
2023-12-10T03:24:19.022Z,99225.66
2023-12-10T03:26:45.770Z,99227.38
2023-12-10T03:29:12.510Z,99228.25
2023-12-10T03:31:39.178Z,99218.75
2023-12-10T03:34:05.982Z,99217.03
2023-12-10T03:36:32.776Z,99223.06
2023-12-10T03:38:59.541Z,99232.56
2023-12-10T03:41:26.308Z,99234.31
2023-12-10T03:43:52.934Z,99236.03
2023-12-10T03:46:19.606Z,99234.28
2023-12-10T03:48:46.551Z,99251.53
2023-12-10T03:51:13.401Z,99255.84
2023-12-10T03:53:40.106Z,99261.94
2023-12-10T03:56:07.260Z,99248.97
2023-12-10T03:58:33.972Z,99267.09
2023-12-10T04:01:00.772Z,99269.69
2023-12-10T04:03:27.883Z,99275.75
2023-12-10T04:05:54.628Z,99267.09
2023-12-10T04:08:21.301Z,99287.81
2023-12-10T04:10:47.977Z,99284.34
2023-12-10T04:13:14.638Z,99298.06
2023-12-10T04:15:42.514Z,99284.34
2023-12-10T04:18:09.338Z,99299.75
2023-12-10T04:20:36.055Z,99287.69
2023-12-10T04:23:03.117Z,99298.88
2023-12-10T04:25:29.962Z,99288.53
2023-12-10T04:27:56.700Z,99289.41
2023-12-10T04:30:25.376Z,99304.00
2023-12-10T04:32:52.150Z,99280.78
2023-12-10T04:35:19.193Z,99294.53
2023-12-10T04:37:46.126Z,99283.31
2023-12-10T04:40:14.277Z,99297.13
2023-12-10T04:42:41.009Z,99296.25
2023-12-10T04:45:08.870Z,99302.25
2023-12-10T04:47:36.735Z,99308.25
2023-12-10T04:50:04.247Z,99299.66
2023-12-10T04:52:32.038Z,99297.00
2023-12-10T04:54:59.770Z,99297.06
2023-12-10T04:57:27.133Z,99308.28
2023-12-10T04:59:54.236Z,99297.84
2023-12-10T05:02:20.930Z,99301.41
2023-12-10T05:04:47.666Z,99311.69
2023-12-10T05:07:14.386Z,99303.97
2023-12-10T05:09:41.602Z,99297.00
2023-12-10T05:12:08.606Z,99306.47
2023-12-10T05:14:35.348Z,99309.09
2023-12-10T05:17:02.007Z,99305.63
2023-12-10T05:19:28.775Z,99309.94
2023-12-10T05:21:55.705Z,99307.38
2023-12-10T05:24:22.609Z,99297.88
2023-12-10T05:26:49.297Z,99317.72
2023-12-10T05:29:15.964Z,99315.19
2023-12-10T05:31:42.629Z,99317.75
2023-12-10T05:34:09.855Z,99315.19
2023-12-10T05:36:36.594Z,99316.84
2023-12-10T05:39:04.390Z,99314.28
2023-12-10T05:41:31.082Z,99309.94
2023-12-10T05:43:57.770Z,99318.56
2023-12-10T05:46:24.566Z,99316.75
2023-12-10T05:48:51.368Z,99319.38
2023-12-10T05:51:18.349Z,99321.06
2023-12-10T05:53:45.085Z,99328.06
2023-12-10T05:56:11.773Z,99325.41
2023-12-10T05:58:38.462Z,99322.00
2023-12-10T06:01:05.587Z,99334.84
2023-12-10T06:03:32.371Z,99330.53
2023-12-10T06:05:59.138Z,99338.34
2023-12-10T06:08:25.857Z,99330.56
2023-12-10T06:10:52.591Z,99329.69
2023-12-10T06:13:19.368Z,99341.75
2023-12-10T06:15:46.666Z,99336.63
2023-12-10T06:18:13.795Z,99342.63
2023-12-10T06:20:40.566Z,99349.59
2023-12-10T06:23:07.296Z,99336.59
2023-12-10T06:25:33.984Z,99338.28
2023-12-10T06:28:00.722Z,99346.91
2023-12-10T06:30:27.457Z,99344.34
2023-12-10T06:32:56.724Z,99354.69
2023-12-10T06:35:23.657Z,99359.84
2023-12-10T06:37:50.811Z,99347.75
2023-12-10T06:40:17.792Z,99361.63
2023-12-10T06:42:45.978Z,99361.59
2023-12-10T06:45:14.522Z,99370.25
2023-12-10T06:47:42.176Z,99369.34
2023-12-10T06:50:10.834Z,99377.13
2023-12-10T06:52:37.933Z,99386.56
2023-12-10T06:55:05.059Z,99389.19
2023-12-10T06:57:31.854Z,99390.00
2023-12-10T06:59:58.488Z,99406.44
2023-12-10T07:02:25.108Z,99403.00
2023-12-10T07:04:51.841Z,99401.28
2023-12-10T07:07:18.593Z,99399.56
2023-12-10T07:09:45.343Z,99410.78
2023-12-10T07:12:12.071Z,99422.88
2023-12-10T07:14:38.774Z,99419.38
2023-12-10T07:17:05.555Z,99428.94
2023-12-10T07:19:32.386Z,99420.31
2023-12-10T07:21:59.456Z,99437.47
2023-12-10T07:24:26.224Z,99437.53
2023-12-10T07:26:53.329Z,99447.84
2023-12-10T07:29:20.161Z,99456.47
2023-12-10T07:31:46.818Z,99450.44
2023-12-10T07:34:13.637Z,99459.84
2023-12-10T07:36:41.304Z,99455.56
2023-12-10T07:39:10.584Z,99454.00
2023-12-10T07:41:37.337Z,99460.84
2023-12-10T07:44:04.347Z,99475.59
2023-12-10T07:46:31.153Z,99479.78
2023-12-10T07:48:57.911Z,99482.28
2023-12-10T07:51:24.755Z,99484.94
2023-12-10T07:53:51.463Z,99467.78
2023-12-10T07:56:18.188Z,99473.72
2023-12-10T07:58:44.885Z,99479.75
2023-12-10T08:01:11.902Z,99483.28
2023-12-10T08:03:38.947Z,99493.59
2023-12-10T08:06:05.879Z,99493.53
2023-12-10T08:08:32.727Z,99491.94
2023-12-10T08:10:59.509Z,99484.97
2023-12-10T08:13:26.262Z,99492.72
2023-12-10T08:15:53.168Z,99489.25
2023-12-10T08:18:20.018Z,99494.50
2023-12-10T08:20:46.952Z,99496.16
2023-12-10T08:23:13.678Z,99514.25
2023-12-10T08:25:40.355Z,99517.88
2023-12-10T08:28:07.208Z,99517.72
2023-12-10T08:30:34.117Z,99530.75
2023-12-10T08:33:00.931Z,99535.03
2023-12-10T08:35:27.721Z,99524.66
2023-12-10T08:37:54.631Z,99535.13
2023-12-10T08:40:21.509Z,99539.53
2023-12-10T08:42:48.363Z,99543.84
2023-12-10T08:45:15.431Z,99544.69
2023-12-10T08:47:42.211Z,99545.50
2023-12-10T08:50:09.912Z,99551.56
2023-12-10T08:52:36.747Z,99552.47
2023-12-10T08:55:03.778Z,99543.00
2023-12-10T08:57:30.578Z,99549.91
2023-12-10T09:00:01.931Z,99555.09
2023-12-10T09:02:30.069Z,99569.84
2023-12-10T09:04:57.341Z,99568.13
2023-12-10T09:07:23.971Z,99584.53
2023-12-10T09:09:56.419Z,99596.69
2023-12-10T09:12:29.720Z,99594.03
2023-12-10T09:14:56.818Z,99606.09
2023-12-10T09:17:23.552Z,99616.63
2023-12-10T09:19:50.528Z,99616.66
2023-12-10T09:22:17.452Z,99624.34
2023-12-10T09:24:44.316Z,99629.56
2023-12-10T09:27:11.375Z,99608.84
2023-12-10T09:29:42.392Z,99622.53
2023-12-10T09:32:09.963Z,99636.41
2023-12-10T09:34:37.253Z,99647.59
2023-12-10T09:37:05.661Z,99650.31
2023-12-10T09:39:32.685Z,99647.59
2023-12-10T09:41:59.447Z,99640.88
2023-12-10T09:44:27.290Z,99657.09
2023-12-10T09:46:53.926Z,99651.94
2023-12-10T09:49:22.665Z,99653.69
2023-12-10T09:51:49.520Z,99658.03
2023-12-10T09:54:21.835Z,99660.69
2023-12-10T09:56:51.342Z,99656.44
2023-12-10T09:59:18.300Z,99670.16
2023-12-10T10:01:50.436Z,99668.44
2023-12-10T10:04:21.213Z,99687.44
2023-12-10T10:06:48.256Z,99679.66
2023-12-10T10:09:27.814Z,99677.97
2023-12-10T10:12:00.011Z,99694.44
2023-12-10T10:14:26.776Z,99690.13
2023-12-10T10:16:53.541Z,99709.13
2023-12-10T10:19:20.671Z,99713.44
2023-12-10T10:21:47.990Z,99720.44
2023-12-10T10:24:17.015Z,99712.59
2023-12-10T10:26:44.913Z,99719.50
2023-12-10T10:29:11.644Z,99724.56
2023-12-10T10:31:39.055Z,99718.69
2023-12-10T10:34:07.890Z,99717.69
2023-12-10T10:36:34.784Z,99719.44
2023-12-10T10:39:02.272Z,99723.78
2023-12-10T10:41:31.876Z,99731.44
2023-12-10T10:44:00.159Z,99730.78
2023-12-10T10:46:27.429Z,99726.34
2023-12-10T10:48:56.232Z,99736.59
2023-12-10T10:51:26.172Z,99748.06
2023-12-10T10:53:55.900Z,99739.38
2023-12-10T10:56:23.324Z,99740.09
2023-12-10T10:58:49.973Z,99744.59
2023-12-10T11:01:43.511Z,99760.06
2023-12-10T11:04:16.759Z,99763.38
2023-12-10T11:06:47.905Z,99759.03
2023-12-10T11:09:14.977Z,99759.94
2023-12-10T11:11:41.810Z,99764.25
2023-12-10T11:14:23.496Z,99769.53
2023-12-10T11:17:03.658Z,99767.88
2023-12-10T11:19:32.450Z,99778.22
2023-12-10T11:22:03.355Z,99786.06
2023-12-10T11:24:30.592Z,99780.78
2023-12-10T11:26:57.312Z,99792.91
2023-12-10T11:29:24.026Z,99797.16
2023-12-10T11:31:50.763Z,99797.16
2023-12-10T11:34:17.504Z,99787.78
2023-12-10T11:36:49.572Z,99795.50
2023-12-10T11:39:16.882Z,99800.69
2023-12-10T11:41:55.626Z,99810.19
2023-12-10T11:44:27.150Z,99808.59
2023-12-10T11:46:57.041Z,99810.31
2023-12-10T11:49:25.210Z,99809.56
2023-12-10T11:51:52.511Z,99821.56
2023-12-10T11:54:19.948Z,99815.63
2023-12-10T11:56:47.211Z,99821.59
2023-12-10T11:59:14.002Z,99826.84
2023-12-10T12:01:41.172Z,99825.84
2023-12-10T12:04:08.403Z,99830.28
2023-12-10T12:06:43.293Z,99831.09
2023-12-10T12:09:21.569Z,99831.91
2023-12-10T12:11:52.297Z,99825.06
2023-12-10T12:14:20.607Z,99821.66
2023-12-10T12:16:47.814Z,99822.50
2023-12-10T12:19:30.698Z,99821.59
2023-12-10T12:22:01.089Z,99811.31
2023-12-10T12:24:28.421Z,99813.97
2023-12-10T12:26:55.847Z,99800.94
2023-12-10T12:29:22.620Z,99808.63
2023-12-10T12:32:05.197Z,99807.75
2023-12-10T12:34:36.510Z,99796.63
2023-12-10T12:37:04.173Z,99805.16
2023-12-10T12:39:31.099Z,99809.47
2023-12-10T12:41:57.910Z,99811.22
2023-12-10T12:44:24.669Z,99808.69
2023-12-10T12:46:53.892Z,99803.56
2023-12-10T12:49:21.151Z,99813.91
2023-12-10T12:51:48.041Z,99802.66
2023-12-10T12:54:15.889Z,99806.09
2023-12-10T12:56:45.660Z,99799.25
2023-12-10T12:59:16.437Z,99800.94
2023-12-10T13:01:43.802Z,99805.28
2023-12-10T13:04:11.117Z,99803.56
2023-12-10T13:06:38.046Z,99813.16
2023-12-10T13:09:08.310Z,99809.78
2023-12-10T13:11:40.957Z,99796.03
2023-12-10T13:14:07.602Z,99804.75
2023-12-10T13:16:34.390Z,99799.63
2023-12-10T13:19:02.012Z,99803.91
2023-12-10T13:21:28.779Z,99810.94
2023-12-10T13:23:55.533Z,99812.53
2023-12-10T13:26:22.182Z,99810.81
2023-12-10T13:28:49.640Z,99805.56
2023-12-10T13:31:16.380Z,99803.09
2023-12-10T13:33:43.549Z,99799.50
2023-12-10T13:36:10.493Z,99789.94
2023-12-10T13:38:37.319Z,99801.22
2023-12-10T13:41:04.318Z,99805.44
2023-12-10T13:43:30.978Z,99800.25
2023-12-10T13:45:57.723Z,99809.78
2023-12-10T13:48:24.733Z,99807.00
2023-12-10T13:50:51.650Z,99807.00
2023-12-10T13:53:19.027Z,99806.19
2023-12-10T13:55:45.698Z,99810.53
2023-12-10T13:58:12.513Z,99809.59
2023-12-10T14:00:39.353Z,99800.97
2023-12-10T14:03:06.196Z,99807.13
2023-12-10T14:05:33.067Z,99814.00
2023-12-10T14:08:00.924Z,99805.28
2023-12-10T14:10:27.817Z,99808.03
2023-12-10T14:12:54.551Z,99804.47
2023-12-10T14:15:21.340Z,99801.09
2023-12-10T14:17:48.041Z,99800.28
2023-12-10T14:20:16.657Z,99802.75
2023-12-10T14:22:44.224Z,99801.88
2023-12-10T14:25:14.913Z,99801.19
2023-12-10T14:27:42.851Z,99808.06
2023-12-10T14:30:09.797Z,99805.44
2023-12-10T14:32:36.602Z,99812.28
2023-12-10T14:35:03.411Z,99804.50
2023-12-10T14:37:30.422Z,99798.56
2023-12-10T14:39:57.978Z,99800.19
2023-12-10T14:42:25.010Z,99794.16
2023-12-10T14:44:51.924Z,99798.44
2023-12-10T14:47:18.601Z,99799.22
2023-12-10T14:49:45.414Z,99790.66
2023-12-10T14:52:12.199Z,99795.81
2023-12-10T14:54:39.062Z,99782.91
2023-12-10T14:57:06.739Z,99792.28
2023-12-10T14:59:33.438Z,99790.63
2023-12-10T15:02:08.919Z,99795.84
2023-12-10T15:04:39.355Z,99782.72
2023-12-10T15:07:06.232Z,99787.13
2023-12-10T15:09:33.052Z,99788.06
2023-12-10T15:11:59.787Z,99771.56
2023-12-10T15:14:26.570Z,99778.44
2023-12-10T15:16:54.517Z,99779.31
2023-12-10T15:19:25.454Z,99785.56
2023-12-10T15:21:52.634Z,99776.66
2023-12-10T15:24:19.850Z,99774.28
2023-12-10T15:26:47.678Z,99766.47
2023-12-10T15:29:14.575Z,99757.03
2023-12-10T15:31:41.337Z,99750.09
2023-12-10T15:34:08.208Z,99753.50
2023-12-10T15:36:35.146Z,99742.28
2023-12-10T15:39:08.794Z,99738.97
2023-12-10T15:42:09.229Z,99739.91
2023-12-10T15:44:37.417Z,99732.91
2023-12-10T15:47:04.354Z,99742.34
2023-12-10T15:49:32.157Z,99738.97
2023-12-10T15:52:01.299Z,99733.84
2023-12-10T15:54:32.334Z,99728.50
2023-12-10T15:56:59.714Z,99727.75
2023-12-10T15:59:26.414Z,99731.19
2023-12-10T16:01:54.012Z,99730.34
2023-12-10T16:04:20.941Z,99728.59
2023-12-10T16:06:47.796Z,99723.41
2023-12-10T16:09:14.533Z,99729.41
2023-12-10T16:11:41.222Z,99732.13
2023-12-10T16:14:08.182Z,99733.88
2023-12-10T16:16:35.006Z,99720.09
2023-12-10T16:19:01.819Z,99714.03
2023-12-10T16:21:28.609Z,99704.50
2023-12-10T16:23:55.293Z,99691.53
2023-12-10T16:26:23.515Z,99697.63
2023-12-10T16:28:51.653Z,99683.75
2023-12-10T16:31:18.468Z,99675.97
2023-12-10T16:33:46.437Z,99676.00
2023-12-10T16:36:14.493Z,99662.19
2023-12-10T16:38:41.110Z,99656.94
2023-12-10T16:41:08.920Z,99662.16
2023-12-10T16:43:35.565Z,99662.19
2023-12-10T16:46:02.330Z,99639.72
2023-12-10T16:48:29.484Z,99640.56
2023-12-10T16:50:57.116Z,99637.09
2023-12-10T16:53:24.609Z,99635.38
2023-12-10T16:55:53.605Z,99630.19
2023-12-10T16:58:20.237Z,99629.34
2023-12-10T17:00:48.338Z,99615.50
2023-12-10T17:03:15.697Z,99612.00
2023-12-10T17:05:42.473Z,99597.28
2023-12-10T17:08:09.323Z,99602.50
2023-12-10T17:10:37.082Z,99589.53
2023-12-10T17:13:04.085Z,99592.97
2023-12-10T17:15:31.017Z,99583.44
2023-12-10T17:17:58.988Z,99558.38
2023-12-10T17:20:25.718Z,99542.84
2023-12-10T17:22:52.786Z,99544.53
2023-12-10T17:25:19.415Z,99540.22
2023-12-10T17:27:46.125Z,99548.00
2023-12-10T17:30:16.383Z,99544.56
2023-12-10T17:32:43.294Z,99541.06
2023-12-10T17:35:12.957Z,99528.09
2023-12-10T17:37:39.835Z,99516.03
2023-12-10T17:40:07.500Z,99508.25
2023-12-10T17:42:37.099Z,99484.88
2023-12-10T17:45:03.988Z,99475.34
2023-12-10T17:47:30.936Z,99472.78
2023-12-10T17:49:57.882Z,99462.38
2023-12-10T17:52:24.639Z,99448.56
2023-12-10T17:54:52.179Z,99450.28
2023-12-10T17:57:19.056Z,99451.16
2023-12-10T17:59:45.752Z,99440.75
2023-12-10T18:02:12.526Z,99448.56
2023-12-10T18:04:39.241Z,99443.38
2023-12-10T18:07:06.434Z,99433.84
2023-12-10T18:09:33.249Z,99431.28
2023-12-10T18:12:00.201Z,99430.41
2023-12-10T18:14:27.098Z,99411.38
2023-12-10T18:16:53.974Z,99391.50
2023-12-10T18:19:21.128Z,99392.34
2023-12-10T18:21:47.921Z,99389.75
2023-12-10T18:24:14.888Z,99396.69
2023-12-10T18:26:41.517Z,99390.59
2023-12-10T18:29:08.229Z,99386.31
2023-12-10T18:31:35.116Z,99379.34
2023-12-10T18:34:01.911Z,99358.63
2023-12-10T18:36:31.079Z,99360.34
2023-12-10T18:38:58.143Z,99350.88
2023-12-10T18:41:25.599Z,99352.59
2023-12-10T18:43:52.528Z,99344.81
2023-12-10T18:46:19.151Z,99328.44
2023-12-10T18:48:47.073Z,99327.53
2023-12-10T18:51:14.201Z,99316.34
2023-12-10T18:53:41.297Z,99318.94
2023-12-10T18:56:09.503Z,99316.34
2023-12-10T18:58:39.625Z,99296.47
2023-12-10T19:01:06.824Z,99290.41
2023-12-10T19:03:33.769Z,99280.06
2023-12-10T19:06:01.458Z,99277.47
2023-12-10T19:08:28.131Z,99272.28
2023-12-10T19:10:55.862Z,99256.75
2023-12-10T19:13:22.742Z,99248.09
2023-12-10T19:15:50.444Z,99231.69
2023-12-10T19:18:17.700Z,99229.09
2023-12-10T19:20:44.465Z,99225.66
2023-12-10T19:23:11.310Z,99224.78
2023-12-10T19:25:38.037Z,99216.16
2023-12-10T19:28:04.802Z,99203.19
2023-12-10T19:30:31.615Z,99197.19
2023-12-10T19:33:00.090Z,99185.94
2023-12-10T19:35:30.351Z,99166.09
2023-12-10T19:37:57.888Z,99172.13
2023-12-10T19:40:27.386Z,99174.72
2023-12-10T19:42:54.106Z,99166.09
2023-12-10T19:45:20.914Z,99160.09
2023-12-10T19:47:52.081Z,99154.03
2023-12-10T19:50:20.080Z,99149.72
2023-12-10T19:52:47.750Z,99138.47
2023-12-10T19:55:16.095Z,99130.75
2023-12-10T19:57:42.843Z,99121.22
2023-12-10T20:00:09.998Z,99116.03
2023-12-10T20:02:39.675Z,99114.34
2023-12-10T20:05:12.706Z,99114.31
2023-12-10T20:07:39.491Z,99113.47
2023-12-10T20:10:06.488Z,99103.13
2023-12-10T20:12:33.385Z,99102.28
2023-12-10T20:15:00.142Z,99090.16
2023-12-10T20:17:28.953Z,99101.38
2023-12-10T20:19:55.995Z,99096.22
2023-12-10T20:22:22.903Z,99088.44
2023-12-10T20:24:56.500Z,99081.53
2023-12-10T20:27:29.460Z,99085.00
2023-12-10T20:29:56.624Z,99079.81
2023-12-10T20:32:23.539Z,99081.53
2023-12-10T20:34:50.445Z,99069.47
2023-12-10T20:37:17.274Z,99072.88
2023-12-10T20:39:44.149Z,99091.03
2023-12-10T20:42:10.941Z,99089.28
2023-12-10T20:44:37.612Z,99075.44
2023-12-10T20:47:04.392Z,99068.50
2023-12-10T20:49:31.225Z,99067.66
2023-12-10T20:51:57.978Z,99065.09
2023-12-10T20:54:24.804Z,99058.97
2023-12-10T20:56:51.563Z,99061.59
2023-12-10T20:59:18.225Z,99055.47
2023-12-10T21:01:45.031Z,99053.75
2023-12-10T21:04:11.792Z,99047.72
2023-12-10T21:06:38.721Z,99046.81
2023-12-10T21:09:06.538Z,99049.34
2023-12-10T21:11:33.255Z,99047.63
2023-12-10T21:14:04.661Z,99042.44
2023-12-10T21:16:31.374Z,99037.25
2023-12-10T21:18:58.138Z,99042.38
2023-12-10T21:21:24.996Z,99036.22
2023-12-10T21:23:51.774Z,99025.00
2023-12-10T21:26:18.417Z,99025.03
2023-12-10T21:28:45.104Z,99033.66
2023-12-10T21:31:11.829Z,99037.06
2023-12-10T21:33:38.585Z,99033.59
2023-12-10T21:36:05.801Z,99030.09
2023-12-10T21:38:32.533Z,99022.34
2023-12-10T21:40:59.377Z,99031.75
2023-12-10T21:43:26.092Z,99021.38
2023-12-10T21:45:52.851Z,99027.41
2023-12-10T21:48:19.882Z,99031.69
2023-12-10T21:50:48.305Z,99030.78
2023-12-10T21:53:15.272Z,99041.16
2023-12-10T21:55:42.104Z,99035.03
2023-12-10T21:58:08.909Z,99028.13
2023-12-10T22:00:36.062Z,99040.13
2023-12-10T22:03:04.106Z,99041.84
2023-12-10T22:05:31.220Z,99034.16
2023-12-10T22:07:58.088Z,99042.72
2023-12-10T22:10:24.744Z,99046.06
2023-12-10T22:12:51.438Z,99049.53
2023-12-10T22:15:18.221Z,99046.13
2023-12-10T22:17:45.058Z,99047.81
2023-12-10T22:20:12.474Z,99050.47
2023-12-10T22:22:42.405Z,99053.84
2023-12-10T22:25:12.746Z,99068.59
2023-12-10T22:27:39.647Z,99068.63
2023-12-10T22:30:07.024Z,99063.38
2023-12-10T22:32:34.256Z,99071.19
2023-12-10T22:35:01.174Z,99083.28
2023-12-10T22:37:28.305Z,99098.94
2023-12-10T22:39:55.309Z,99090.31
2023-12-10T22:42:21.971Z,99085.06
2023-12-10T22:44:48.663Z,99086.75
2023-12-10T22:47:15.284Z,99093.69
2023-12-10T22:49:45.711Z,99093.66
2023-12-10T22:52:13.461Z,99098.84
2023-12-10T22:54:40.378Z,99097.13
2023-12-10T22:57:07.039Z,99109.28
2023-12-10T22:59:33.915Z,99102.31
2023-12-10T23:02:01.404Z,99108.38
2023-12-10T23:04:28.286Z,99105.72
2023-12-10T23:06:55.519Z,99094.50
2023-12-10T23:09:22.246Z,99102.25
2023-12-10T23:11:49.168Z,99110.91
2023-12-10T23:14:15.933Z,99108.38
2023-12-10T23:16:43.084Z,99115.19
2023-12-10T23:19:10.554Z,99111.66
2023-12-10T23:21:37.576Z,99110.88
2023-12-10T23:24:04.546Z,99116.06
2023-12-10T23:26:31.219Z,99110.78
2023-12-10T23:28:58.275Z,99131.63
2023-12-10T23:31:24.952Z,99115.13
2023-12-10T23:33:51.880Z,99129.91
2023-12-10T23:36:18.645Z,99116.03
2023-12-10T23:38:45.344Z,99138.56
2023-12-10T23:41:13.848Z,99142.81
2023-12-10T23:43:40.802Z,99133.38
2023-12-10T23:46:09.240Z,99136.00
2023-12-10T23:48:36.146Z,99139.44
2023-12-10T23:51:02.847Z,99134.25
2023-12-10T23:53:29.498Z,99140.25
2023-12-10T23:55:56.160Z,99135.97
2023-12-10T23:58:22.911Z,99140.28
